Time;durP1;ratioP1;P1;durP2;ratioP2;P2;SDS_P1;SDS_P2;PMS_P1;PMS_P2;Temp;Humidity;BMP_temperature;BMP_pressure;BME280_temperature;BME280_humidity;BME280_pressure;Samples;Min_cycle;Max_cycle;Signal;HPM_P1;HPM_P2
2024/02/28 04:20:12;;;;;;;0.10;0.10;;;;;;;;;;5046089;28;20045;-89
2024/02/28 04:22:38;;;;;;;0.10;0.10;;;;;;;;;;5032945;28;20505;-88
2024/02/28 04:25:05;;;;;;;0.00;0.00;;;-0.20;99.90;;;;;;5031154;28;20025;-88
2024/02/28 04:27:31;;;;;;;0.10;0.10;;;;;;;;;;5034553;28;20028;-87
2024/02/28 04:29:57;;;;;;;0.20;0.20;;;;;;;;;;5029287;28;20035;-90
2024/02/28 05:37:01;;;;;;;0.10;0.10;;;;;;;;;;5042898;28;20396;-89
2024/02/28 05:39:30;;;;;;;0.03;0.03;;;;;;;;;;5031592;28;20502;-89
2024/02/28 05:41:57;;;;;;;0.08;0.08;;;;;;;;;;5051332;28;20463;-87
2024/02/28 05:44:24;;;;;;;0.10;0.10;;;;;;;;;;5027608;28;20039;-87
2024/02/28 05:46:50;;;;;;;0.10;0.10;;;;;;;;;;5033418;28;20040;-87
2024/02/28 05:49:16;;;;;;;0.10;0.10;;;;;;;;;;5035814;28;20112;-87
2024/02/28 05:51:42;;;;;;;0.10;0.10;;;;;;;;;;5036132;28;20052;-88
2024/02/28 05:54:08;;;;;;;0.10;0.10;;;;;;;;;;5032689;28;20066;-87
2024/02/28 05:56:34;;;;;;;0.10;0.10;;;;;;;;;;5038969;28;20017;-88
2024/02/28 05:58:59;;;;;;;0.10;0.10;;;;;;;;;;5037320;28;20029;-90
2024/02/28 06:01:25;;;;;;;0.10;0.10;;;;;;;;;;5033470;28;20059;-87
2024/02/28 06:03:52;;;;;;;0.10;0.10;;;;;;;;;;5037347;28;20040;-88
2024/02/28 06:06:18;;;;;;;0.10;0.10;;;;;;;;;;5035623;28;20083;-88
2024/02/28 06:08:44;;;;;;;0.10;0.10;;;;;;;;;;5037327;28;20029;-89
2024/02/28 06:11:10;;;;;;;0.10;0.10;;;;;;;;;;5036524;28;20112;-90
2024/02/28 06:13:36;;;;;;;0.10;0.10;;;;;;;;;;5036428;28;21058;-87
2024/02/28 06:16:03;;;;;;;0.10;0.10;;;;;;;;;;5031560;28;20039;-87
2024/02/28 06:18:33;;;;;;;0.00;0.00;;;;;;;;;;5031299;28;20479;-87
2024/02/28 06:20:59;;;;;;;0.00;0.00;;;;;;;;;;5029223;28;20029;-88
2024/02/28 06:23:25;;;;;;;0.00;0.00;;;;;;;;;;5033408;28;20037;-88
2024/02/28 06:25:51;;;;;;;0.10;0.10;;;;;;;;;;5037117;28;20025;-89
2024/02/28 06:28:17;;;;;;;0.10;0.10;;;;;;;;;;5032928;28;21727;-88
2024/02/28 06:30:45;;;;;;;0.10;0.10;;;;;;;;;;5035032;28;20035;-88
2024/02/28 06:33:11;;;;;;;0.08;0.08;;;;;;;;;;5041788;28;20497;-88
2024/02/28 06:35:37;;;;;;;0.10;0.10;;;;;;;;;;5036513;28;20121;-87
2024/02/28 06:38:03;;;;;;;0.10;0.10;;;;;;;;;;5036323;28;20118;-87
2024/02/28 06:40:29;;;;;;;0.10;0.10;;;;;;;;;;5038806;28;20117;-89
2024/02/28 06:42:55;;;;;;;0.10;0.10;;;;;;;;;;5037392;28;20033;-88
2024/02/28 06:45:21;;;;;;;0.10;0.10;;;;;;;;;;5028807;28;20204;-89
2024/02/28 06:47:48;;;;;;;0.10;0.10;;;;;;;;;;5035030;28;20029;-88
2024/02/28 06:50:14;;;;;;;0.10;0.10;;;;;;;;;;5035423;28;20029;-88
2024/02/28 06:52:40;;;;;;;0.10;0.10;;;;;;;;;;5037575;28;20048;-90
2024/02/28 06:55:10;;;;;;;0.10;0.10;;;;;;;;;;5035156;28;20039;-87
2024/02/28 06:57:36;;;;;;;0.10;0.10;;;1.40;99.90;;;;;;5050879;28;20043;-87
2024/02/28 07:00:02;;;;;;;0.10;0.10;;;;;;;;;;5036431;28;20032;-89
2024/02/28 07:02:28;;;;;;;0.00;0.00;;;;;;;;;;5037875;28;20063;-88
2024/02/28 07:04:54;;;;;;;0.10;0.10;;;;;;;;;;5035588;28;20022;-89
2024/02/28 07:07:21;;;;;;;0.10;0.10;;;;;;;;;;5033215;28;20450;-88
2024/02/28 07:09:47;;;;;;;0.00;0.00;;;;;;;;;;5039539;28;20114;-89
2024/02/28 07:12:13;;;;;;;0.10;0.10;;;;;;;;;;5035032;28;20155;-88
2024/02/28 07:14:39;;;;;;;0.10;0.10;;;;;;;;;;5035606;28;20028;-89
2024/02/28 07:17:06;;;;;;;0.10;0.10;;;;;;;;;;5030323;28;20056;-88
2024/02/28 07:19:32;;;;;;;0.10;0.10;;;;;;;;;;5034626;28;20021;-88
2024/02/28 07:21:58;;;;;;;0.10;0.10;;;;;;;;;;5034354;28;20028;-88
2024/02/28 07:24:24;;;;;;;0.10;0.10;;;;;;;;;;5034191;28;20092;-88
2024/02/28 07:26:50;;;;;;;0.10;0.10;;;;;;;;;;5035230;28;20104;-87
2024/02/28 07:29:16;;;;;;;0.10;0.10;;;;;;;;;;5035343;28;20044;-87
2024/02/28 07:31:42;;;;;;;0.10;0.10;;;;;;;;;;5050868;28;20464;-87
2024/02/28 07:34:09;;;;;;;0.10;0.10;;;;;;;;;;5054145;28;20026;-87
2024/02/28 07:36:35;;;;;;;0.10;0.10;;;;;;;;;;5032959;28;20395;-89
2024/02/28 07:39:01;;;;;;;0.10;0.10;;;;;;;;;;5054326;28;20120;-87
2024/02/28 07:41:27;;;;;;;0.10;0.10;;;2.30;99.90;;;;;;5032691;28;20081;-88
2024/02/28 07:43:53;;;;;;;0.10;0.10;;;;;;;;;;5049998;28;20112;-88
2024/02/28 07:46:19;;;;;;;0.10;0.10;;;;;;;;;;5032460;28;20060;-87
2024/02/28 07:48:45;;;;;;;0.10;0.10;;;;;;;;;;5034954;28;20033;-88
2024/02/28 07:51:11;;;;;;;0.10;0.10;;;;;;;;;;5036284;28;20045;-88
2024/02/28 07:53:37;;;;;;;0.10;0.10;;;;;;;;;;5033614;28;20036;-88
2024/02/28 07:56:03;;;;;;;0.08;0.08;;;;;;;;;;5052868;28;20029;-88
2024/02/28 07:58:29;;;;;;;0.08;0.08;;;;;;;;;;5034682;28;20033;-88
2024/02/28 08:00:55;;;;;;;0.10;0.10;;;;;;;;;;5037157;28;20416;-88
2024/02/28 08:03:21;;;;;;;0.03;0.03;;;;;;;;;;5032145;28;20040;-89
2024/02/28 08:05:48;;;;;;;0.10;0.10;;;;;;;;;;5031304;28;20039;-89
2024/02/28 08:08:14;;;;;;;0.10;0.10;;;;;;;;;;5034904;28;20546;-87
2024/02/28 08:10:40;;;;;;;0.10;0.10;;;;;;;;;;5032389;28;20039;-88
2024/02/28 08:13:07;;;;;;;0.10;0.10;;;;;;;;;;5035495;28;20495;-88
2024/02/28 08:15:33;;;;;;;0.10;0.10;;;;;;;;;;5034687;28;20056;-87
2024/02/28 08:17:59;;;;;;;0.10;0.10;;;;;;;;;;5033613;28;20467;-89
2024/02/28 08:20:25;;;;;;;0.10;0.10;;;;;;;;;;5032100;28;20040;-88
2024/02/28 08:22:56;;;;;;;0.10;0.10;;;;;;;;;;5049487;28;20032;-86
2024/02/28 08:25:22;;;;;;;0.00;0.00;;;;;;;;;;5033397;28;20539;-87
2024/02/28 08:27:48;;;;;;;0.10;0.10;;;;;;;;;;5036977;28;20059;-89
2024/02/28 08:30:14;;;;;;;0.10;0.10;;;;;;;;;;5037499;28;20029;-89
2024/02/28 08:32:41;;;;;;;0.10;0.10;;;3.50;99.90;;;;;;5037360;28;20528;-88
2024/02/28 08:35:08;;;;;;;0.10;0.10;;;3.50;99.90;;;;;;5054966;28;20062;-88
2024/02/28 08:37:34;;;;;;;0.10;0.10;;;;;;;;;;5035114;28;20047;-88
2024/02/28 08:40:00;;;;;;;0.10;0.10;;;;;;;;;;5036953;28;20024;-88
2024/02/28 08:42:26;;;;;;;0.10;0.10;;;;;;;;;;5033669;28;20036;-87
2024/02/28 08:44:54;;;;;;;0.10;0.10;;;;;;;;;;5036871;28;20036;-87
2024/02/28 08:47:23;;;;;;;0.00;0.00;;;3.80;99.90;;;;;;5034483;28;20024;-89
2024/02/28 08:49:49;;;;;;;0.10;0.10;;;;;;;;;;5054185;28;20050;-87
2024/02/28 08:52:15;;;;;;;0.10;0.10;;;;;;;;;;5039237;28;20079;-88
2024/02/28 08:54:41;;;;;;;0.10;0.10;;;;;;;;;;5037228;28;20496;-88
2024/02/28 08:57:07;;;;;;;0.10;0.10;;;;;;;;;;5031380;28;20120;-89
2024/02/28 08:59:33;;;;;;;0.10;0.10;;;;;;;;;;5035133;28;20471;-88
2024/02/28 09:01:59;;;;;;;0.10;0.10;;;;;;;;;;5035894;28;20120;-89
2024/02/28 09:04:25;;;;;;;0.10;0.10;;;;;;;;;;5036188;28;20375;-89
2024/02/28 09:06:53;;;;;;;0.10;0.10;;;;;;;;;;5036462;28;20497;-89
2024/02/28 09:09:19;;;;;;;0.10;0.10;;;;;;;;;;5036744;28;20051;-86
2024/02/28 09:11:44;;;;;;;0.10;0.10;;;;;;;;;;5028894;28;20159;-88
2024/02/28 09:14:10;;;;;;;0.10;0.10;;;;;;;;;;5035744;28;20071;-88
2024/02/28 09:16:36;;;;;;;0.10;0.10;;;;;;;;;;5040181;28;20025;-90
2024/02/28 09:19:03;;;;;;;0.00;0.00;;;4.50;99.90;;;;;;5042223;28;20025;-89
2024/02/28 09:21:29;;;;;;;0.10;0.10;;;;;;;;;;5038958;28;20032;-88
2024/02/28 09:23:55;;;;;;;0.03;0.03;;;;;;;;;;5039443;28;20410;-89
2024/02/28 09:26:21;;;;;;;0.10;0.10;;;;;;;;;;5039052;28;20021;-88
2024/02/28 09:28:47;;;;;;;0.10;0.10;;;;;;;;;;5034716;28;20033;-90
2024/02/28 09:31:15;;;;;;;0.10;0.10;;;;;;;;;;5034152;28;20100;-87
2024/02/28 09:33:41;;;;;;;0.10;0.10;;;;;;;;;;5036483;28;20068;-88
2024/02/28 09:36:07;;;;;;;0.10;0.10;;;;;;;;;;5054946;28;20143;-88
2024/02/28 09:38:34;;;;;;;0.10;0.10;;;;;;;;;;5043474;28;20339;-88
2024/02/28 09:41:00;;;;;;;0.10;0.10;;;;;;;;;;5038977;28;20056;-89
2024/02/28 09:43:31;;;;;;;0.10;0.10;;;5.00;99.90;;;;;;5037246;28;20033;-88
2024/02/28 09:46:05;;;;;;;0.10;0.10;;;5.20;99.90;;;;;;5049001;28;20377;-88
2024/02/28 09:48:31;;;;;;;0.10;0.10;;;;;;;;;;5039974;28;20059;-89
2024/02/28 09:50:57;;;;;;;0.10;0.10;;;;;;;;;;5042078;28;20024;-89
2024/02/28 09:53:23;;;;;;;0.00;0.00;;;;;;;;;;5040992;28;20036;-89
2024/02/28 09:55:52;;;;;;;0.10;0.10;;;5.60;99.90;;;;;;5033047;28;20030;-90
2024/02/28 09:58:21;;;;;;;0.10;0.10;;;;;;;;;;5040219;28;20041;-89
2024/02/28 10:00:47;;;;;;;0.10;0.10;;;;;;;;;;5033232;28;20439;-89
2024/02/28 10:03:20;;;;;;;0.10;0.10;;;5.80;99.90;;;;;;5039945;28;20115;-88
2024/02/28 10:05:46;;;;;;;0.10;0.10;;;5.80;99.90;;;;;;5038124;28;20104;-88
2024/02/28 10:08:14;;;;;;;0.10;0.10;;;;;;;;;;5038441;28;20032;-88
2024/02/28 10:10:46;;;;;;;0.10;0.10;;;5.80;99.90;;;;;;5040912;28;20464;-88
2024/02/28 10:13:12;;;;;;;0.10;0.10;;;;;;;;;;5038218;28;20044;-88
2024/02/28 10:15:37;;;;;;;0.10;0.10;;;;;;;;;;5037898;28;20040;-89
2024/02/28 10:18:03;;;;;;;0.10;0.10;;;6.20;99.90;;;;;;5040328;28;20432;-89
2024/02/28 10:20:31;;;;;;;0.10;0.10;;;6.10;99.90;;;;;;5038207;28;20400;-88
2024/02/28 10:22:57;;;;;;;0.10;0.10;;;;;;;;;;5057730;28;20036;-88
2024/02/28 10:25:23;;;;;;;0.10;0.10;;;6.20;99.90;;;;;;5040109;28;20017;-88
2024/02/28 10:27:49;;;;;;;0.10;0.10;;;;;;;;;;5037013;28;20040;-87
2024/02/28 10:30:16;;;;;;;0.10;0.10;;;6.20;99.90;;;;;;5041263;28;20041;-88
2024/02/28 10:32:49;;;;;;;0.10;0.10;;;6.30;99.90;;;;;;5041151;28;20123;-88
2024/02/28 10:35:17;;;;;;;0.10;0.10;;;6.40;99.90;;;;;;5041787;28;20054;-88
2024/02/28 10:37:44;;;;;;;0.10;0.10;;;6.50;99.90;;;;;;5038580;28;20036;-89
2024/02/28 10:40:11;;;;;;;0.10;0.10;;;6.50;99.90;;;;;;5035776;28;20079;-88
2024/02/28 10:42:37;;;;;;;0.03;0.03;;;6.50;99.90;;;;;;5034435;28;20070;-89
2024/02/28 10:45:03;;;;;;;0.10;0.10;;;6.80;99.90;;;;;;5057367;28;20033;-89
2024/02/28 10:47:28;;;;;;;0.10;0.10;;;;;;;;;;5054400;28;20558;-86
2024/02/28 10:49:54;;;;;;;0.10;0.10;;;;;;;;;;5041002;28;20037;-88
2024/02/28 10:52:21;;;;;;;0.10;0.10;;;6.70;99.90;;;;;;5041531;28;20642;-87
2024/02/28 10:54:55;;;;;;;0.10;0.10;;;6.80;99.90;;;;;;5039428;28;20024;-89
2024/02/28 10:57:21;;;;;;;0.10;0.10;;;6.90;99.90;;;;;;5037942;28;20029;-89
2024/02/28 10:59:48;;;;;;;0.10;0.10;;;;;;;;;;5053823;28;20359;-89
2024/02/28 11:02:14;;;;;;;0.10;0.10;;;7.00;99.90;;;;;;5036695;28;20025;-89
2024/02/28 11:04:40;;;;;;;0.10;0.10;;;;;;;;;;5039297;28;20020;-89
2024/02/28 11:07:06;;;;;;;0.10;0.10;;;;;;;;;;5035745;28;20406;-89
2024/02/28 11:09:32;;;;;;;0.10;0.10;;;;;;;;;;5042797;28;20112;-91
2024/02/28 11:11:58;;;;;;;0.10;0.10;;;;;;;;;;5031575;28;20123;-90
2024/02/28 11:14:26;;;;;;;0.10;0.10;;;;;;;;;;5038780;28;20033;-88
2024/02/28 11:17:05;;;;;;;0.10;0.10;;;7.20;99.90;;;;;;5042884;28;20037;-89
2024/02/28 11:19:33;;;;;;;0.10;0.10;;;7.20;99.90;;;;;;5036258;28;20522;-90
2024/02/28 11:21:59;;;;;;;0.10;0.10;;;;;;;;;;5039081;28;20047;-90
2024/02/28 11:24:30;;;;;;;0.10;0.10;;;7.40;99.90;;;;;;5039131;28;20033;-90
2024/02/28 11:26:56;;;;;;;0.10;0.10;;;;;;;;;;5038915;28;20430;-90
2024/02/28 11:29:26;;;;;;;0.10;0.10;;;7.40;99.90;;;;;;5039528;28;20032;-89
2024/02/28 11:31:53;;;;;;;0.10;0.10;;;;;;;;;;5033970;28;20037;-90
2024/02/28 11:34:19;;;;;;;0.10;0.10;;;;;;;;;;5035604;28;20688;-90
2024/02/28 11:36:48;;;;;;;0.10;0.10;;;7.60;99.90;;;;;;5034202;28;20041;-91
2024/02/28 11:39:14;;;;;;;0.10;0.10;;;;;;;;;;5039637;28;20052;-91
2024/02/28 11:41:40;;;;;;;0.10;0.10;;;;;;;;;;5038469;28;20094;-90
2024/02/28 11:44:06;;;;;;;0.10;0.10;;;;;;;;;;5038852;28;20086;-90
2024/02/28 11:46:32;;;;;;;0.10;0.10;;;7.80;99.90;;;;;;5036598;28;20475;-90
2024/02/28 11:48:58;;;;;;;0.10;0.10;;;;;;;;;;5040356;28;20035;-89
2024/02/28 16:13:42;;;;;;;0.10;0.10;;;;;;;;;;4995408;28;20050;-88
2024/02/28 16:16:08;;;;;;;0.10;0.10;;;;;;;;;;4985619;28;20033;-88
2024/02/28 16:18:34;;;;;;;0.10;0.10;;;;;;;;;;4975367;28;20026;-89
2024/02/28 16:21:01;;;;;;;0.10;0.10;;;;;;;;;;4976384;28;20021;-90
2024/02/28 16:23:27;;;;;;;0.10;0.10;;;;;;;;;;4992260;28;20030;-90
2024/02/28 16:25:55;;;;;;;0.10;0.10;;;;;;;;;;4992542;28;20057;-90
2024/02/28 16:28:25;;;;;;;0.10;0.10;;;6.40;99.90;;;;;;4987639;28;20092;-89
2024/02/28 16:30:52;;;;;;;0.10;0.10;;;6.40;99.90;;;;;;4972967;28;20455;-90
2024/02/28 16:33:20;;;;;;;0.10;0.10;;;;;;;;;;4972953;28;20037;-89
2024/02/28 16:35:46;;;;;;;0.10;0.10;;;;;;;;;;4970497;28;20027;-90
2024/02/28 16:38:12;;;;;;;0.10;0.10;;;;;;;;;;4973361;28;20428;-88
2024/02/28 16:40:38;;;;;;;0.10;0.10;;;;;;;;;;4975033;28;20501;-89
2024/02/28 16:43:04;;;;;;;0.10;0.10;;;;;;;;;;4972371;28;20041;-85
2024/02/28 16:45:30;;;;;;;0.10;0.10;;;;;;;;;;4986975;28;20095;-88
2024/02/28 16:47:56;;;;;;;0.10;0.10;;;;;;;;;;4987299;28;20038;-89
2024/02/28 16:50:22;;;;;;;0.10;0.10;;;;;;;;;;4990172;28;20489;-89
2024/02/28 16:52:47;;;;;;;0.10;0.10;;;;;;;;;;4987297;28;20054;-90
2024/02/28 16:55:13;;;;;;;0.10;0.10;;;;;;;;;;4986304;28;20113;-90
2024/02/28 16:57:39;;;;;;;0.10;0.10;;;;;;;;;;4988448;28;20039;-87
2024/02/28 17:00:08;;;;;;;0.10;0.10;;;;;;;;;;4971468;28;20023;-87
2024/02/28 17:02:35;;;;;;;0.10;0.10;;;6.00;99.90;;;;;;4974906;28;20062;-88
2024/02/28 17:05:02;;;;;;;0.10;0.10;;;;;;;;;;4991666;28;20040;-89
2024/02/28 17:07:30;;;;;;;0.10;0.10;;;;;;;;;;4997101;28;20038;-89
2024/02/28 17:09:56;;;;;;;0.10;0.10;;;;;;;;;;4972913;28;20079;-89
2024/02/28 17:12:22;;;;;;;0.00;0.00;;;;;;;;;;4974605;28;20027;-90
2024/02/28 17:14:48;;;;;;;0.10;0.10;;;;;;;;;;4976377;28;20089;-89
2024/02/28 17:17:14;;;;;;;0.10;0.10;;;;;;;;;;4992419;28;20034;-89
2024/02/28 17:19:40;;;;;;;0.10;0.10;;;;;;;;;;4975063;28;20057;-89
2024/02/28 17:22:07;;;;;;;0.10;0.10;;;;;;;;;;4986732;28;20031;-89
2024/02/28 17:24:34;;;;;;;0.10;0.10;;;;;;;;;;4991236;28;20022;-88
2024/02/28 17:27:00;;;;;;;0.10;0.10;;;;;;;;;;4969877;28;20038;-89
2024/02/28 17:29:26;;;;;;;0.10;0.10;;;;;;;;;;4982563;28;20046;-89
2024/02/28 17:31:53;;;;;;;0.10;0.10;;;;;;;;;;4966481;28;20477;-89
2024/02/28 17:34:18;;;;;;;0.00;0.00;;;;;;;;;;4986082;28;20489;-89
2024/02/28 17:36:44;;;;;;;0.10;0.10;;;;;;;;;;4987604;28;20030;-89
2024/02/28 17:39:12;;;;;;;0.10;0.10;;;;;;;;;;4990878;28;20030;-89
2024/02/28 17:41:38;;;;;;;0.10;0.10;;;;;;;;;;4994397;28;20037;-89
2024/02/28 17:44:04;;;;;;;0.10;0.10;;;;;;;;;;4990341;28;20117;-88
2024/02/28 17:46:30;;;;;;;0.10;0.10;;;;;;;;;;4986226;28;20031;-88
2024/02/28 17:48:56;;;;;;;0.10;0.10;;;;;;;;;;4990807;28;20089;-89
2024/02/28 17:51:22;;;;;;;0.10;0.10;;;;;;;;;;4994375;28;20026;-90
2024/02/28 17:53:48;;;;;;;0.10;0.10;;;;;;;;;;4981741;28;20030;-89
2024/02/28 17:56:14;;;;;;;0.10;0.10;;;;;;;;;;4995428;28;20559;-88
2024/02/28 17:58:40;;;;;;;0.10;0.10;;;;;;;;;;4980580;28;20065;-90
2024/02/28 18:01:07;;;;;;;0.00;0.00;;;;;;;;;;4991909;28;20026;-89
2024/02/28 18:03:33;;;;;;;0.10;0.10;;;;;;;;;;4978099;28;20038;-88
2024/02/28 18:05:59;;;;;;;0.00;0.00;;;;;;;;;;4980926;28;20552;-89
2024/02/28 18:08:26;;;;;;;0.10;0.10;;;;;;;;;;4996002;28;20030;-90
2024/02/28 18:10:52;;;;;;;0.10;0.10;;;;;;;;;;4979448;28;20046;-90
2024/02/28 18:13:21;;;;;;;0.10;0.10;;;;;;;;;;4992851;28;20034;-87
2024/02/28 18:15:47;;;;;;;0.10;0.10;;;;;;;;;;4985598;28;20452;-89
2024/02/28 18:18:14;;;;;;;0.10;0.10;;;;;;;;;;4994875;28;20038;-89
2024/02/28 18:20:40;;;;;;;0.10;0.10;;;;;;;;;;4991323;28;20026;-89
2024/02/28 18:23:06;;;;;;;0.10;0.10;;;;;;;;;;4995018;28;20026;-89
2024/02/28 18:25:31;;;;;;;0.10;0.10;;;5.10;99.90;;;;;;4996586;28;20381;-88
2024/02/28 18:27:57;;;;;;;0.10;0.10;;;;;;;;;;4979531;28;20030;-89
2024/02/28 18:30:25;;;;;;;0.10;0.10;;;;;;;;;;4994419;28;20026;-90
2024/02/28 18:32:51;;;;;;;0.00;0.00;;;;;;;;;;4999665;28;20461;-89
2024/02/28 18:35:17;;;;;;;0.10;0.10;;;;;;;;;;4995924;28;20031;-89
2024/02/28 18:37:43;;;;;;;0.10;0.10;;;;;;;;;;4994764;28;20405;-89
2024/02/28 18:40:14;;;;;;;0.10;0.10;;;;;;;;;;4994645;28;20034;-88
2024/02/28 18:42:40;;;;;;;0.10;0.10;;;;;;;;;;4991837;28;20528;-90
2024/02/28 18:45:06;;;;;;;0.10;0.10;;;4.70;99.90;;;;;;4976387;28;20519;-88
2024/02/28 18:47:33;;;;;;;0.10;0.10;;;;;;;;;;4973517;28;20077;-89
2024/02/28 18:49:59;;;;;;;0.10;0.10;;;;;;;;;;4978793;28;20105;-87
2024/02/28 18:52:24;;;;;;;0.10;0.10;;;4.80;99.90;;;;;;4990894;28;20059;-88
2024/02/28 18:54:50;;;;;;;0.10;0.10;;;;;;;;;;4993191;28;20499;-89
2024/02/28 18:57:16;;;;;;;0.00;0.00;;;;;;;;;;4974639;28;20050;-89
2024/02/28 18:59:42;;;;;;;0.10;0.10;;;;;;;;;;4974453;28;20595;-89
2024/02/28 19:02:08;;;;;;;0.10;0.10;;;;;;;;;;4992778;28;20488;-89
2024/02/28 19:04:36;;;;;;;0.10;0.10;;;5.00;99.90;;;;;;4980732;28;20037;-89
2024/02/28 19:07:01;;;;;;;0.10;0.10;;;;;;;;;;4977574;28;20058;-89
2024/02/28 19:09:27;;;;;;;0.10;0.10;;;;;;;;;;4993826;28;20069;-90
2024/02/28 19:11:53;;;;;;;0.10;0.10;;;;;;;;;;4994473;28;20045;-88
2024/02/28 19:14:19;;;;;;;0.00;0.00;;;;;;;;;;4998435;28;20389;-87
2024/02/28 19:16:45;;;;;;;0.10;0.10;;;;;;;;;;4974833;28;20030;-89
2024/02/28 19:19:12;;;;;;;0.03;0.03;;;;;;;;;;4992663;28;20061;-88
2024/02/28 19:21:40;;;;;;;0.10;0.10;;;5.00;99.90;;;;;;4993323;28;20038;-91
2024/02/28 19:24:06;;;;;;;0.00;0.00;;;;;;;;;;4978068;28;20097;-87
2024/02/28 19:26:33;;;;;;;0.10;0.10;;;;;;;;;;4978342;28;20034;-89
2024/02/28 19:28:59;;;;;;;0.10;0.10;;;;;;;;;;4977820;28;20110;-89
2024/02/28 19:31:25;;;;;;;0.10;0.10;;;;;;;;;;4996112;28;20517;-87
2024/02/28 19:33:51;;;;;;;0.10;0.10;;;;;;;;;;4991922;28;20033;-90
2024/02/28 19:36:17;;;;;;;0.10;0.10;;;;;;;;;;4994485;28;20027;-89
2024/02/28 19:38:43;;;;;;;0.10;0.10;;;;;;;;;;4972020;28;20026;-90
2024/02/28 19:41:09;;;;;;;0.10;0.10;;;;;;;;;;4975122;28;20042;-90
2024/02/28 19:43:35;;;;;;;0.10;0.10;;;;;;;;;;4990562;28;20022;-89
2024/02/28 19:46:01;;;;;;;0.10;0.10;;;;;;;;;;4976745;28;20596;-88
2024/02/28 19:48:28;;;;;;;0.10;0.10;;;;;;;;;;4994326;28;20062;-89
2024/02/28 19:50:54;;;;;;;0.10;0.10;;;;;;;;;;4988256;28;20035;-87
2024/02/28 19:53:20;;;;;;;0.10;0.10;;;;;;;;;;4992271;28;20089;-87
2024/02/28 19:55:46;;;;;;;0.10;0.10;;;;;;;;;;4990458;28;20038;-88
2024/02/28 19:58:12;;;;;;;0.10;0.10;;;;;;;;;;4973199;28;20089;-87
2024/02/28 20:00:42;;;;;;;0.10;0.10;;;;;;;;;;4987969;28;20037;-87
2024/02/28 20:03:08;;;;;;;;;;;4.40;99.90;;;;;;4973742;28;20477;-87
2024/02/28 20:05:34;;;;;;;0.10;0.10;;;;;;;;;;4974568;28;19917;-89
2024/02/28 20:08:00;;;;;;;0.10;0.10;;;;;;;;;;4990008;28;20034;-90
2024/02/28 20:10:26;;;;;;;0.05;0.05;;;;;;;;;;4992077;28;20034;-88
2024/02/28 20:12:54;;;;;;;0.00;0.00;;;;;;;;;;4983211;28;20105;-90
2024/02/28 20:15:21;;;;;;;0.10;0.10;;;;;;;;;;4974404;28;20038;-89
2024/02/28 20:17:47;;;;;;;0.10;0.10;;;;;;;;;;4976148;28;20030;-89
2024/02/28 20:20:13;;;;;;;0.10;0.10;;;;;;;;;;4991487;28;20034;-90
2024/02/28 20:22:39;;;;;;;0.10;0.10;;;;;;;;;;4974519;28;20378;-90
2024/02/28 20:25:06;;;;;;;0.10;0.10;;;;;;;;;;4975336;28;20494;-90
2024/02/28 20:27:32;;;;;;;0.10;0.10;;;;;;;;;;4987260;28;20461;-89
2024/02/28 20:29:58;;;;;;;0.00;0.00;;;;;;;;;;4976058;28;20070;-90
2024/02/28 20:32:24;;;;;;;0.10;0.10;;;;;;;;;;4978239;28;20030;-89
2024/02/28 20:34:50;;;;;;;0.10;0.10;;;;;;;;;;4978330;28;20034;-90
2024/02/28 20:37:17;;;;;;;0.10;0.10;;;;;;;;;;4975533;28;20030;-89
2024/02/28 20:39:43;;;;;;;0.10;0.10;;;;;;;;;;4978295;28;20034;-89
2024/02/28 20:42:09;;;;;;;0.10;0.10;;;;;;;;;;4969082;28;20408;-89
2024/02/28 20:44:35;;;;;;;0.10;0.10;;;;;;;;;;4989649;28;20030;-90
2024/02/28 20:47:02;;;;;;;0.10;0.10;;;;;;;;;;4972319;28;20037;-89
2024/02/28 20:49:28;;;;;;;0.10;0.10;;;;;;;;;;4973260;28;20038;-90
2024/02/28 20:51:57;;;;;;;0.10;0.10;;;;;;;;;;4991093;28;20034;-89
2024/02/28 20:54:22;;;;;;;0.10;0.10;;;;;;;;;;4978619;28;20038;-89
2024/02/28 20:56:49;;;;;;;0.10;0.10;;;;;;;;;;4982640;28;20507;-87
2024/02/28 20:59:15;;;;;;;0.10;0.10;;;;;;;;;;4974343;28;20034;-89
2024/02/28 21:01:41;;;;;;;0.10;0.10;;;;;;;;;;4990676;28;20465;-89
2024/02/28 21:04:07;;;;;;;0.10;0.10;;;;;;;;;;4990118;28;20022;-90
2024/02/28 21:06:33;;;;;;;0.10;0.10;;;;;;;;;;4965602;28;20031;-89
2024/02/28 21:09:00;;;;;;;0.10;0.10;;;;;;;;;;4984062;28;20058;-89
2024/02/28 21:11:27;;;;;;;0.10;0.10;;;;;;;;;;4976414;28;20041;-89
2024/02/28 21:13:54;;;;;;;0.10;0.10;;;;;;;;;;4996497;28;20034;-89
2024/02/28 21:16:23;;;;;;;0.03;0.03;;;3.90;99.90;;;;;;4994244;28;20646;-90
2024/02/28 21:18:53;;;;;;;0.10;0.10;;;;;;;;;;4994785;28;20031;-90
2024/02/28 21:21:19;;;;;;;0.10;0.10;;;;;;;;;;4999187;28;20380;-90
2024/02/28 21:23:46;;;;;;;0.10;0.10;;;;;;;;;;4995356;28;20057;-89
2024/02/28 21:26:13;;;;;;;0.10;0.10;;;;;;;;;;4998169;28;20030;-88
2024/02/28 21:28:39;;;;;;;0.10;0.10;;;;;;;;;;4999214;28;20027;-89
2024/02/28 21:31:05;;;;;;;0.00;0.00;;;;;;;;;;4976965;28;20027;-90
2024/02/28 21:33:31;;;;;;;0.10;0.10;;;;;;;;;;4999234;28;20022;-89
2024/02/28 21:35:57;;;;;;;0.00;0.00;;;;;;;;;;4999153;28;20180;-89
2024/02/28 21:38:23;;;;;;;0.10;0.10;;;;;;;;;;4996895;28;20030;-89
2024/02/28 21:40:49;;;;;;;0.10;0.10;;;;;;;;;;4995269;28;20482;-89
2024/02/28 21:43:15;;;;;;;0.10;0.10;;;;;;;;;;4981790;28;20038;-88
2024/02/28 21:45:41;;;;;;;0.10;0.10;;;;;;;;;;4979886;28;20049;-89
2024/02/28 21:48:07;;;;;;;0.05;0.05;;;;;;;;;;4986404;28;20038;-89
2024/02/28 21:50:39;;;;;;;0.10;0.10;;;;;;;;;;4991860;28;20039;-88
2024/02/28 21:53:05;;;;;;;0.10;0.10;;;;;;;;;;4982037;28;20040;-90
2024/02/28 21:55:31;;;;;;;0.10;0.10;;;;;;;;;;4982300;28;20105;-90
2024/02/28 21:57:57;;;;;;;0.10;0.10;;;;;;;;;;4978351;28;20042;-89
2024/02/28 22:00:23;;;;;;;0.10;0.10;;;;;;;;;;4991038;28;20036;-89
2024/02/28 22:02:49;;;;;;;0.10;0.10;;;;;;;;;;4997145;28;20034;-90
2024/02/28 22:05:15;;;;;;;0.10;0.10;;;;;;;;;;4975601;28;20053;-90
2024/02/28 22:07:41;;;;;;;0.10;0.10;;;;;;;;;;4977830;28;20054;-90
2024/02/28 22:10:07;;;;;;;0.10;0.10;;;;;;;;;;4978652;28;20468;-89
